createdAt,value
2019-02-14T00:00:35.940Z,0.60
2019-02-14T00:03:05.186Z,0.60
2019-02-14T00:05:34.323Z,0.50
2019-02-14T00:08:04.276Z,0.50
2019-02-14T00:10:33.518Z,0.50
2019-02-14T00:13:02.752Z,0.50
2019-02-14T00:15:32.651Z,0.50
2019-02-14T00:18:01.803Z,0.50
2019-02-14T00:20:31.095Z,0.50
2019-02-14T00:23:00.248Z,0.40
2019-02-14T00:25:30.038Z,0.40
2019-02-14T00:27:59.282Z,0.40
2019-02-14T00:30:28.403Z,0.40
2019-02-14T00:32:57.598Z,0.40
2019-02-14T00:35:26.879Z,0.40
2019-02-14T00:37:56.672Z,0.50
2019-02-14T00:40:26.115Z,0.50
2019-02-14T00:42:55.347Z,0.50
2019-02-14T00:45:24.514Z,0.60
2019-02-14T00:47:54.102Z,0.60
2019-02-14T00:50:24.536Z,0.60
2019-02-14T00:52:54.246Z,0.70
2019-02-14T00:55:23.772Z,0.70
2019-02-14T00:57:53.538Z,0.80
2019-02-14T01:00:22.763Z,0.80
2019-02-14T01:02:52.382Z,0.80
2019-02-14T01:05:21.925Z,0.80
2019-02-14T01:07:51.149Z,0.80
2019-02-14T01:10:20.423Z,0.80
2019-02-14T01:12:49.711Z,0.80
2019-02-14T01:15:22.300Z,0.80
2019-02-14T01:17:52.234Z,0.80
2019-02-14T01:20:21.477Z,0.80
2019-02-14T01:22:50.680Z,0.90
2019-02-14T01:25:19.795Z,0.90
2019-02-14T01:27:49.100Z,0.80
2019-02-14T01:30:18.380Z,0.80
2019-02-14T01:32:47.536Z,0.70
2019-02-14T01:35:16.993Z,0.60
2019-02-14T01:37:48.129Z,0.60
2019-02-14T01:40:17.193Z,0.60
2019-02-14T01:42:46.923Z,0.60
2019-02-14T01:45:16.185Z,0.60
2019-02-14T01:47:48.259Z,0.60
2019-02-14T01:50:17.976Z,0.60
2019-02-14T01:52:47.210Z,0.60
2019-02-14T01:55:16.355Z,0.60
2019-02-14T01:57:46.166Z,0.50
2019-02-14T02:00:15.957Z,0.50
2019-02-14T02:02:45.148Z,0.50
2019-02-14T02:05:14.702Z,0.50
2019-02-14T02:07:43.843Z,0.40
2019-02-14T02:10:13.547Z,0.40
2019-02-14T02:12:42.738Z,0.40
2019-02-14T02:15:13.482Z,0.40
2019-02-14T02:17:43.669Z,0.40
2019-02-14T02:20:12.903Z,0.40
2019-02-14T02:22:42.427Z,0.30
2019-02-14T02:25:12.079Z,0.30
2019-02-14T02:27:41.848Z,0.30
2019-02-14T02:30:12.924Z,0.30
2019-02-14T02:32:42.128Z,0.30
2019-02-14T02:35:11.394Z,0.30
2019-02-14T02:37:40.584Z,0.30
2019-02-14T02:40:09.817Z,0.20
2019-02-14T02:42:39.015Z,0.20
2019-02-14T02:45:09.780Z,0.10
2019-02-14T02:47:38.935Z,0.10
2019-02-14T02:50:10.022Z,0.10
2019-02-14T02:52:39.186Z,0.00
2019-02-14T02:55:08.601Z,0.00
2019-02-14T02:57:38.229Z,0.00
2019-02-14T03:00:11.365Z,0.00
2019-02-14T03:02:40.575Z,-0.10
2019-02-14T03:05:11.232Z,-0.10
2019-02-14T03:07:40.822Z,-0.10
2019-02-14T03:10:10.555Z,-0.10
2019-02-14T03:12:39.827Z,-0.20
2019-02-14T03:15:10.441Z,-0.10
2019-02-14T03:17:39.611Z,-0.20
2019-02-14T03:20:10.077Z,-0.20
2019-02-14T03:22:39.293Z,-0.20
2019-02-14T03:25:11.428Z,-0.20
2019-02-14T03:27:40.599Z,-0.30
2019-02-14T03:30:10.786Z,-0.30
2019-02-14T03:32:40.003Z,-0.30
2019-02-14T03:35:09.220Z,-0.40
2019-02-14T03:37:38.643Z,-0.30
2019-02-14T03:40:08.918Z,-0.30
2019-02-14T03:42:38.431Z,-0.30
2019-02-14T03:45:10.282Z,-0.30
2019-02-14T03:47:39.439Z,-0.20
2019-02-14T03:50:08.849Z,-0.20
2019-02-14T03:52:38.656Z,-0.20
2019-02-14T03:55:08.430Z,-0.30
2019-02-14T03:57:37.778Z,-0.20
2019-02-14T04:00:09.960Z,-0.30
2019-02-14T04:02:39.283Z,-0.20
2019-02-14T04:05:08.482Z,-0.20
2019-02-14T04:07:37.634Z,-0.20
2019-02-14T04:10:07.588Z,-0.20
2019-02-14T04:12:36.835Z,-0.20
2019-02-14T04:15:06.933Z,-0.20
2019-02-14T04:17:36.083Z,-0.20
2019-02-14T04:20:05.400Z,-0.20
2019-02-14T04:22:34.619Z,-0.30
2019-02-14T04:25:04.196Z,-0.30
2019-02-14T04:27:33.392Z,-0.30
2019-02-14T04:30:02.690Z,-0.30
2019-02-14T04:32:31.865Z,-0.40
2019-02-14T04:35:01.032Z,-0.40
2019-02-14T04:37:30.247Z,-0.50
2019-02-14T04:39:59.462Z,-0.50
2019-02-14T04:42:31.720Z,-0.60
2019-02-14T04:45:00.966Z,-0.60
2019-02-14T04:47:30.427Z,-0.70
2019-02-14T04:49:59.642Z,-0.70
2019-02-14T04:52:28.880Z,-0.70
2019-02-14T04:54:57.981Z,-0.70
2019-02-14T04:57:27.115Z,-0.70
2019-02-14T04:59:56.352Z,-0.70
2019-02-14T05:02:25.540Z,-0.70
2019-02-14T05:04:55.345Z,-0.70
2019-02-14T05:07:24.776Z,-0.70
2019-02-14T05:09:53.962Z,-0.80
2019-02-14T05:12:23.720Z,-0.80
2019-02-14T05:14:53.266Z,-0.80
2019-02-14T05:17:22.464Z,-0.80
2019-02-14T05:19:51.721Z,-0.80
2019-02-14T05:22:20.942Z,-0.80
2019-02-14T05:24:50.462Z,-0.90
2019-02-14T05:27:19.596Z,-0.90
2019-02-14T05:29:48.795Z,-0.90
2019-02-14T05:32:18.229Z,-0.90
2019-02-14T05:34:47.724Z,-0.90
2019-02-14T05:37:16.854Z,-0.90
2019-02-14T05:39:46.567Z,-0.90
2019-02-14T05:42:16.139Z,-0.90
2019-02-14T05:44:45.690Z,-1.00
2019-02-14T05:47:15.259Z,-1.00
2019-02-14T05:49:44.571Z,-1.00
2019-02-14T05:52:13.990Z,-1.00
2019-02-14T05:54:43.682Z,-1.00
2019-02-14T05:57:13.464Z,-1.00
2019-02-14T05:59:42.641Z,-1.00
2019-02-14T06:02:12.339Z,-1.00
2019-02-14T06:04:41.583Z,-1.00
2019-02-14T06:07:12.392Z,-1.00
2019-02-14T06:09:47.344Z,-1.00
2019-02-14T06:12:17.243Z,-1.00
2019-02-14T06:14:46.808Z,-1.00
2019-02-14T06:17:16.144Z,-1.00
2019-02-14T06:19:45.299Z,-1.00
2019-02-14T06:22:14.593Z,-1.00
2019-02-14T06:24:43.887Z,-1.10
2019-02-14T06:27:13.378Z,-1.10
2019-02-14T06:29:42.621Z,-1.10
2019-02-14T06:32:11.784Z,-1.10
2019-02-14T06:34:41.155Z,-1.10
2019-02-14T06:37:10.356Z,-1.10
2019-02-14T06:39:39.543Z,-1.10
2019-02-14T06:42:08.727Z,-1.10
2019-02-14T06:44:37.874Z,-1.10
2019-02-14T06:47:07.190Z,-1.10
2019-02-14T06:49:36.314Z,-1.00
2019-02-14T06:52:05.563Z,-1.00
2019-02-14T06:54:35.099Z,-1.00
2019-02-14T06:57:04.295Z,-0.90
2019-02-14T06:59:33.485Z,-0.90
2019-02-14T07:02:02.720Z,-0.80
2019-02-14T07:04:31.934Z,-0.70
2019-02-14T07:07:02.713Z,-0.70
2019-02-14T07:09:32.063Z,-0.60
2019-02-14T07:12:01.254Z,-0.40
2019-02-14T07:14:30.494Z,-0.30
2019-02-14T07:16:59.719Z,-0.20
2019-02-14T07:19:29.260Z,-0.10
2019-02-14T07:21:58.406Z,-0.10
2019-02-14T07:24:27.571Z,0.00
2019-02-14T07:26:56.723Z,0.10
2019-02-14T07:29:25.994Z,0.10
2019-02-14T07:31:55.457Z,0.20
2019-02-14T07:34:24.986Z,0.20
2019-02-14T07:36:54.176Z,0.20
2019-02-14T07:39:23.495Z,0.20
2019-02-14T07:41:52.781Z,0.30
2019-02-14T07:44:22.056Z,0.30
2019-02-14T07:46:51.184Z,0.30
2019-02-14T07:49:20.775Z,0.40
2019-02-14T07:51:49.944Z,0.40
2019-02-14T07:54:22.442Z,0.50
2019-02-14T07:56:52.535Z,0.60
2019-02-14T07:59:21.843Z,0.70
2019-02-14T08:01:51.313Z,0.80
2019-02-14T08:04:21.899Z,1.00
2019-02-14T08:06:51.148Z,1.10
2019-02-14T08:09:20.248Z,1.20
2019-02-14T08:11:49.436Z,1.40
2019-02-14T08:14:18.614Z,1.50
2019-02-14T08:16:47.887Z,1.70
2019-02-14T08:19:17.138Z,1.80
2019-02-14T08:21:46.572Z,1.80
2019-02-14T08:24:15.753Z,1.80
2019-02-14T08:26:44.989Z,1.70
2019-02-14T08:29:14.499Z,1.60
2019-02-14T08:31:43.694Z,1.40
2019-02-14T08:34:12.919Z,1.40
2019-02-14T08:36:42.157Z,1.40
2019-02-14T08:39:11.367Z,1.30
2019-02-14T08:41:40.704Z,1.20
2019-02-14T08:44:10.250Z,1.10
2019-02-14T08:46:39.416Z,1.00
2019-02-14T08:49:08.698Z,1.10
2019-02-14T08:51:38.263Z,1.20
2019-02-14T08:54:07.356Z,1.20
2019-02-14T08:56:37.128Z,1.20
2019-02-14T08:59:06.361Z,1.20
2019-02-14T09:01:35.609Z,1.10
2019-02-14T09:04:04.771Z,1.10
2019-02-14T09:06:34.044Z,1.10
2019-02-14T09:09:04.975Z,1.10
2019-02-14T09:11:34.535Z,1.20
2019-02-14T09:14:03.742Z,1.40
2019-02-14T09:16:33.250Z,1.70
2019-02-14T09:19:02.431Z,2.00
2019-02-14T09:21:32.006Z,2.40
2019-02-14T09:24:02.971Z,2.60
2019-02-14T09:26:32.683Z,2.90
2019-02-14T09:29:02.231Z,3.30
2019-02-14T09:31:32.003Z,3.60
2019-02-14T09:34:01.166Z,3.80
2019-02-14T09:36:30.680Z,4.10
2019-02-14T09:38:59.950Z,4.30
2019-02-14T09:41:29.438Z,4.50
2019-02-14T09:43:58.642Z,4.50
2019-02-14T09:46:27.831Z,4.60
2019-02-14T09:48:57.274Z,4.80
2019-02-14T09:51:26.545Z,5.00
2019-02-14T09:53:55.776Z,5.20
2019-02-14T09:56:24.931Z,5.40
2019-02-14T09:58:54.444Z,5.70
2019-02-14T10:01:24.079Z,5.90
2019-02-14T10:03:53.306Z,6.10
2019-02-14T10:06:22.738Z,6.00
2019-02-14T10:08:53.133Z,6.00
2019-02-14T10:11:22.628Z,6.00
2019-02-14T10:13:52.064Z,6.00
2019-02-14T10:16:21.219Z,6.00
2019-02-14T10:18:50.811Z,6.00
2019-02-14T10:21:19.996Z,6.10
2019-02-14T10:23:49.489Z,6.20
2019-02-14T10:26:19.040Z,6.20
2019-02-14T10:28:48.201Z,6.30
2019-02-14T10:31:17.416Z,6.40
2019-02-14T10:33:46.915Z,6.60
2019-02-14T10:36:16.496Z,6.70
2019-02-14T10:38:46.084Z,6.80
2019-02-14T10:41:15.807Z,7.00
2019-02-14T10:43:48.794Z,7.20
2019-02-14T10:46:16.213Z,7.50
2019-02-14T10:48:45.722Z,7.80
2019-02-14T10:51:14.875Z,7.90
2019-02-14T10:53:44.114Z,8.10
2019-02-14T10:56:13.355Z,8.30
2019-02-14T10:58:42.514Z,8.40
2019-02-14T11:01:12.288Z,8.50
2019-02-14T11:03:41.698Z,8.60
2019-02-14T11:06:10.963Z,8.80
2019-02-14T11:08:40.211Z,8.80
2019-02-14T11:11:09.432Z,8.70
2019-02-14T11:13:38.677Z,8.50
2019-02-14T11:16:09.670Z,8.50
2019-02-14T11:18:44.373Z,8.70
2019-02-14T11:21:10.596Z,8.90
2019-02-14T11:23:39.774Z,9.40
2019-02-14T11:26:08.922Z,10.00
2019-02-14T11:28:38.128Z,10.90
2019-02-14T11:31:07.558Z,11.50
2019-02-14T11:33:36.716Z,12.30
2019-02-14T11:36:05.855Z,13.40
2019-02-14T11:38:40.672Z,15.10
2019-02-14T11:41:06.347Z,15.20
2019-02-14T11:43:35.568Z,14.70
2019-02-14T11:46:05.330Z,15.30
2019-02-14T11:48:34.479Z,14.70
2019-02-14T11:51:04.056Z,13.60
2019-02-14T11:53:33.250Z,12.70
2019-02-14T11:56:02.497Z,12.30
2019-02-14T11:58:31.731Z,13.30
2019-02-14T12:01:00.843Z,13.00
2019-02-14T12:03:30.416Z,12.40
2019-02-14T12:05:59.580Z,12.60
2019-02-14T12:08:29.075Z,13.20
2019-02-14T12:10:58.233Z,14.10
2019-02-14T12:13:27.397Z,16.00
2019-02-14T12:15:56.599Z,15.70
2019-02-14T12:18:25.733Z,14.90
2019-02-14T12:20:55.520Z,14.70
2019-02-14T12:23:24.802Z,14.30
2019-02-14T12:25:54.049Z,13.70
2019-02-14T12:28:23.270Z,13.70
2019-02-14T12:30:52.810Z,15.90
2019-02-14T12:33:22.375Z,18.10
2019-02-14T12:35:51.632Z,18.20
2019-02-14T12:38:20.845Z,17.60
2019-02-14T12:40:50.012Z,16.10
2019-02-14T12:43:19.358Z,14.70
2019-02-14T12:45:48.799Z,14.00
2019-02-14T12:48:18.097Z,13.40
2019-02-14T12:50:47.579Z,12.90
2019-02-14T12:53:16.732Z,13.70
2019-02-14T12:55:47.691Z,14.10
2019-02-14T12:58:17.348Z,14.00
2019-02-14T13:00:46.954Z,14.10
2019-02-14T13:03:16.522Z,14.20
2019-02-14T13:05:45.912Z,16.30
2019-02-14T13:08:15.126Z,17.50
2019-02-14T13:10:44.335Z,17.40
2019-02-14T13:13:13.830Z,16.80
2019-02-14T13:15:43.060Z,17.20
2019-02-14T13:18:12.576Z,18.60
2019-02-14T13:20:41.810Z,20.20
2019-02-14T13:23:11.315Z,21.80
2019-02-14T13:25:40.823Z,24.00
2019-02-14T13:28:10.085Z,25.50
2019-02-14T13:30:39.460Z,25.40
2019-02-14T13:33:08.785Z,23.90
2019-02-14T13:35:38.143Z,22.20
2019-02-14T13:38:07.521Z,19.40
2019-02-14T13:40:37.301Z,17.00
2019-02-14T13:43:06.500Z,15.20
2019-02-14T13:45:35.797Z,13.70
2019-02-14T13:48:05.047Z,13.70
2019-02-14T13:50:35.399Z,14.60
2019-02-14T13:53:04.688Z,15.40
2019-02-14T13:55:34.161Z,16.10
2019-02-14T13:58:03.372Z,16.90
2019-02-14T14:00:32.754Z,18.10
2019-02-14T14:03:02.060Z,20.10
2019-02-14T14:05:31.194Z,21.10
2019-02-14T14:08:00.464Z,21.00
2019-02-14T14:10:29.870Z,20.70
2019-02-14T14:12:59.507Z,20.50
2019-02-14T14:15:39.229Z,20.70
2019-02-14T14:18:08.627Z,20.10
2019-02-14T14:20:38.239Z,19.30
2019-02-14T14:23:07.663Z,18.70
2019-02-14T14:25:38.096Z,17.80
2019-02-14T14:28:07.407Z,16.90
2019-02-14T14:30:37.686Z,16.20
2019-02-14T14:33:06.959Z,15.90
2019-02-14T14:35:36.248Z,15.50
2019-02-14T14:38:05.704Z,14.90
2019-02-14T14:40:34.963Z,15.10
2019-02-14T14:43:33.276Z,15.40
2019-02-14T14:46:33.513Z,15.30
2019-02-14T14:49:02.741Z,15.90
2019-02-14T14:51:31.883Z,18.20
2019-02-14T14:54:01.302Z,20.20
2019-02-14T14:56:30.787Z,21.20
2019-02-14T14:59:00.360Z,22.00
2019-02-14T15:01:29.678Z,23.40
2019-02-14T15:03:59.096Z,23.70
2019-02-14T15:06:28.420Z,23.00
2019-02-14T15:08:58.064Z,21.00
2019-02-14T15:11:27.334Z,19.20
2019-02-14T15:13:56.889Z,17.80
2019-02-14T15:16:26.133Z,16.50
2019-02-14T15:18:55.403Z,15.20
2019-02-14T15:21:24.523Z,14.20
2019-02-14T15:23:53.783Z,13.40
2019-02-14T15:26:23.008Z,12.90
2019-02-14T15:28:52.533Z,12.50
2019-02-14T15:31:21.781Z,12.20
2019-02-14T15:33:50.960Z,12.00
2019-02-14T15:36:21.728Z,12.40
2019-02-14T15:38:51.018Z,13.10
2019-02-14T15:41:20.587Z,13.70
2019-02-14T15:43:50.365Z,13.50
2019-02-14T15:46:19.900Z,13.20
2019-02-14T15:48:49.649Z,13.10
2019-02-14T15:51:20.069Z,13.30
2019-02-14T15:53:49.648Z,13.50
2019-02-14T15:56:18.843Z,13.90
2019-02-14T15:58:48.177Z,14.90
2019-02-14T16:01:19.050Z,15.60
2019-02-14T16:03:48.839Z,15.50
2019-02-14T16:06:18.407Z,14.40
2019-02-14T16:08:48.871Z,13.20
2019-02-14T16:11:18.274Z,12.20
2019-02-14T16:13:47.802Z,11.50
2019-02-14T16:16:17.101Z,10.90
2019-02-14T16:18:47.197Z,10.50
2019-02-14T16:21:17.628Z,10.20
2019-02-14T16:23:46.843Z,9.90
2019-02-14T16:26:17.137Z,9.80
2019-02-14T16:28:46.870Z,9.70
2019-02-14T16:31:16.071Z,9.50
2019-02-14T16:33:45.282Z,9.20
2019-02-14T16:36:14.503Z,8.80
2019-02-14T16:38:43.896Z,8.50
2019-02-14T16:41:13.160Z,8.30
2019-02-14T16:43:42.464Z,8.00
2019-02-14T16:46:11.723Z,7.80
2019-02-14T16:48:40.980Z,7.60
2019-02-14T16:51:11.482Z,7.40
2019-02-14T16:53:40.761Z,7.30
2019-02-14T16:56:09.991Z,7.20
2019-02-14T16:58:40.276Z,7.10
2019-02-14T17:01:09.793Z,6.90
2019-02-14T17:03:39.015Z,6.80
2019-02-14T17:06:08.308Z,6.80
2019-02-14T17:08:37.502Z,6.70
2019-02-14T17:11:07.102Z,6.60
2019-02-14T17:13:36.582Z,6.50
2019-02-14T17:16:05.744Z,6.40
2019-02-14T17:18:35.011Z,6.30
2019-02-14T17:21:04.203Z,6.30
2019-02-14T17:23:33.460Z,6.30
2019-02-14T17:26:03.012Z,6.30
2019-02-14T17:28:32.507Z,6.20
2019-02-14T17:31:01.731Z,6.30
2019-02-14T17:33:31.321Z,6.30
2019-02-14T17:36:00.630Z,6.30
2019-02-14T17:38:31.005Z,6.10
2019-02-14T17:41:00.563Z,6.00
2019-02-14T17:43:29.832Z,5.90
2019-02-14T17:45:59.092Z,5.80
2019-02-14T17:48:28.615Z,5.80
2019-02-14T17:50:57.791Z,5.80
2019-02-14T17:53:27.246Z,5.70
2019-02-14T17:55:57.327Z,5.70
2019-02-14T17:58:26.756Z,5.70
2019-02-14T18:00:56.264Z,5.60
2019-02-14T18:03:25.514Z,5.50
2019-02-14T18:05:54.772Z,5.50
2019-02-14T18:08:24.000Z,5.40
2019-02-14T18:10:55.032Z,5.40
2019-02-14T18:13:24.375Z,5.30
2019-02-14T18:15:53.685Z,5.30
2019-02-14T18:18:23.006Z,5.40
2019-02-14T18:20:52.350Z,5.50
2019-02-14T18:23:21.770Z,5.50
2019-02-14T18:25:51.037Z,5.40
2019-02-14T18:28:20.625Z,5.40
2019-02-14T18:30:50.384Z,5.30
2019-02-14T18:33:19.608Z,5.20
2019-02-14T18:35:48.822Z,5.20
2019-02-14T18:38:18.466Z,5.20
2019-02-14T18:40:47.600Z,5.30
2019-02-14T18:43:16.805Z,5.30
2019-02-14T18:45:46.617Z,5.30
2019-02-14T18:48:15.755Z,5.30
2019-02-14T18:50:44.949Z,5.40
2019-02-14T18:53:14.109Z,5.40
2019-02-14T18:55:43.624Z,5.40
2019-02-14T18:58:13.192Z,5.40
2019-02-14T19:00:42.458Z,5.40
2019-02-14T19:03:11.710Z,5.30
2019-02-14T19:05:40.968Z,5.20
2019-02-14T19:08:10.594Z,5.10
2019-02-14T19:10:40.047Z,5.00
2019-02-14T19:13:09.291Z,4.90
2019-02-14T19:15:38.823Z,4.90
2019-02-14T19:18:08.296Z,4.80
2019-02-14T19:20:37.512Z,4.70
2019-02-14T19:23:06.710Z,4.60
2019-02-14T19:25:35.931Z,4.50
2019-02-14T19:28:05.358Z,4.50
2019-02-14T19:30:34.889Z,4.30
2019-02-14T19:33:04.137Z,4.30
2019-02-14T19:35:33.420Z,4.20
2019-02-14T19:38:02.866Z,4.10
2019-02-14T19:40:32.103Z,4.10
2019-02-14T19:43:01.343Z,4.10
2019-02-14T19:45:36.648Z,4.10
2019-02-14T19:48:02.385Z,4.00
2019-02-14T19:50:32.055Z,4.00
2019-02-14T19:53:01.619Z,3.90
2019-02-14T19:55:30.898Z,3.90
2019-02-14T19:58:00.358Z,3.90
2019-02-14T20:00:29.648Z,3.80
2019-02-14T20:02:58.835Z,3.80
2019-02-14T20:05:27.998Z,3.80
2019-02-14T20:07:57.498Z,3.80
2019-02-14T20:10:26.998Z,3.70
2019-02-14T20:12:59.183Z,3.70
2019-02-14T20:15:46.533Z,3.60
2019-02-14T20:18:16.051Z,3.60
2019-02-14T20:20:45.240Z,3.50
2019-02-14T20:23:14.767Z,3.50
2019-02-14T20:25:44.317Z,3.40
2019-02-14T20:28:13.667Z,3.40
2019-02-14T20:30:42.893Z,3.40
2019-02-14T20:33:12.098Z,3.50
2019-02-14T20:35:41.693Z,3.40
2019-02-14T20:38:11.436Z,3.40
2019-02-14T20:40:40.657Z,3.40
2019-02-14T20:43:10.297Z,3.30
2019-02-14T20:45:39.924Z,3.20
2019-02-14T20:48:09.060Z,3.20
2019-02-14T20:50:38.786Z,3.20
2019-02-14T20:53:08.561Z,3.10
2019-02-14T20:55:55.749Z,3.10
2019-02-14T20:58:24.994Z,3.10
2019-02-14T21:00:54.866Z,3.10
2019-02-14T21:03:24.211Z,3.10
2019-02-14T21:05:53.857Z,3.10
2019-02-14T21:08:23.212Z,3.00
2019-02-14T21:10:52.404Z,3.00
2019-02-14T21:13:21.662Z,2.90
2019-02-14T21:15:52.209Z,2.90
2019-02-14T21:18:25.777Z,2.80
2019-02-14T21:20:55.883Z,2.80
2019-02-14T21:23:26.526Z,2.70
2019-02-14T21:25:59.492Z,2.70
2019-02-14T21:28:29.167Z,2.60
2019-02-14T21:30:59.061Z,2.70
2019-02-14T21:33:28.262Z,2.60
2019-02-14T21:35:57.676Z,2.60
2019-02-14T21:38:27.348Z,2.70
2019-02-14T21:40:59.390Z,2.70
2019-02-14T21:43:31.466Z,2.70
2019-02-14T21:46:00.819Z,2.60
2019-02-14T21:48:31.258Z,2.60
2019-02-14T21:51:00.897Z,2.60
2019-02-14T21:53:30.168Z,2.60
2019-02-14T21:55:59.424Z,2.60
2019-02-14T21:58:28.688Z,2.60
2019-02-14T22:00:57.930Z,2.60
2019-02-14T22:03:27.285Z,2.60
2019-02-14T22:05:56.814Z,2.50
2019-02-14T22:08:26.393Z,2.50
2019-02-14T22:10:56.230Z,2.40
2019-02-14T22:13:26.116Z,2.40
2019-02-14T22:15:55.416Z,2.40
2019-02-14T22:18:25.064Z,2.40
2019-02-14T22:20:54.686Z,2.40
2019-02-14T22:23:24.973Z,2.30
2019-02-14T22:25:54.194Z,2.30
2019-02-14T22:28:23.695Z,2.30
2019-02-14T22:30:53.491Z,2.30
2019-02-14T22:33:23.259Z,2.30
2019-02-14T22:35:52.440Z,2.30
2019-02-14T22:38:21.838Z,2.30
2019-02-14T22:40:51.040Z,2.30
2019-02-14T22:43:20.166Z,2.30
2019-02-14T22:45:49.413Z,2.30
2019-02-14T22:48:19.030Z,2.30
2019-02-14T22:50:48.505Z,2.30
2019-02-14T22:53:17.700Z,2.30
2019-02-14T22:55:46.902Z,2.30
2019-02-14T22:58:16.584Z,2.20
2019-02-14T23:00:50.093Z,2.10
2019-02-14T23:03:19.263Z,2.00
2019-02-14T23:05:48.468Z,1.80
2019-02-14T23:08:17.635Z,1.70
2019-02-14T23:10:47.139Z,1.60
2019-02-14T23:13:16.247Z,1.50
2019-02-14T23:15:45.515Z,1.40
2019-02-14T23:18:14.798Z,1.30
2019-02-14T23:20:44.023Z,1.30
2019-02-14T23:23:13.194Z,1.30
2019-02-14T23:25:45.243Z,1.30
2019-02-14T23:28:14.713Z,1.30
2019-02-14T23:30:44.311Z,1.30
2019-02-14T23:33:13.559Z,1.30
2019-02-14T23:35:43.041Z,1.30
2019-02-14T23:38:12.228Z,1.30
2019-02-14T23:40:44.983Z,1.20
2019-02-14T23:43:14.191Z,1.20
2019-02-14T23:45:43.300Z,1.20
2019-02-14T23:48:12.459Z,1.20
2019-02-14T23:50:42.288Z,1.20
2019-02-14T23:53:11.475Z,1.10
2019-02-14T23:55:40.640Z,1.10
2019-02-14T23:58:09.869Z,1.10
